createdAt,value
2022-08-17T00:01:17.254Z,24.62
2022-08-17T00:03:47.866Z,24.62
2022-08-17T00:06:15.243Z,24.62
2022-08-17T00:08:45.134Z,24.61
2022-08-17T00:11:13.961Z,24.61
2022-08-17T00:13:44.050Z,24.61
2022-08-17T00:16:14.221Z,24.62
2022-08-17T00:18:53.763Z,24.61
2022-08-17T00:21:26.656Z,24.61
2022-08-17T00:24:12.753Z,24.60
2022-08-17T00:26:45.167Z,24.60
2022-08-17T00:29:11.154Z,24.61
2022-08-17T00:31:45.401Z,24.61
2022-08-17T00:34:11.066Z,24.61
2022-08-17T00:36:36.999Z,24.61
2022-08-17T00:39:03.677Z,24.61
2022-08-17T00:41:29.324Z,24.61
2022-08-17T00:44:00.261Z,24.60
2022-08-17T00:46:31.356Z,24.61
2022-08-17T00:48:57.773Z,24.60
2022-08-17T00:51:49.889Z,24.60
2022-08-17T00:54:22.684Z,24.60
2022-08-17T00:56:51.423Z,24.59
2022-08-17T00:59:21.365Z,24.60
2022-08-17T01:01:48.792Z,24.60
2022-08-17T01:04:16.013Z,24.60
2022-08-17T01:06:42.171Z,24.61
2022-08-17T01:09:08.125Z,24.59
2022-08-17T01:11:36.334Z,24.59
2022-08-17T01:14:02.478Z,24.60
2022-08-17T01:16:29.813Z,24.59
2022-08-17T01:18:59.912Z,24.59
2022-08-17T01:21:31.714Z,24.59
2022-08-17T01:23:57.627Z,24.60
2022-08-17T01:26:23.345Z,24.59
2022-08-17T01:28:54.782Z,24.59
2022-08-17T01:31:23.693Z,24.60
2022-08-17T01:33:49.346Z,24.60
2022-08-17T01:36:14.981Z,24.58
2022-08-17T01:38:40.648Z,24.59
2022-08-17T01:41:10.912Z,24.59
2022-08-17T01:43:43.463Z,24.59
2022-08-17T01:46:09.188Z,24.59
2022-08-17T01:48:37.065Z,24.59
2022-08-17T01:51:06.323Z,24.59
2022-08-17T01:53:36.053Z,24.59
2022-08-17T01:56:06.148Z,24.58
2022-08-17T01:58:34.081Z,24.58
2022-08-17T02:01:01.437Z,24.58
2022-08-17T02:03:27.773Z,24.59
2022-08-17T02:05:53.523Z,24.58
2022-08-17T02:08:20.608Z,24.57
2022-08-17T02:11:04.652Z,24.57
2022-08-17T02:13:37.238Z,24.57
2022-08-17T02:16:03.193Z,24.58
2022-08-17T02:18:29.349Z,24.58
2022-08-17T02:20:55.440Z,24.58
2022-08-17T02:23:22.421Z,24.57
2022-08-17T02:25:48.341Z,24.58
2022-08-17T02:28:14.635Z,24.58
2022-08-17T02:30:59.553Z,24.58
2022-08-17T02:33:41.999Z,24.58
2022-08-17T02:36:10.428Z,24.57
2022-08-17T02:38:36.925Z,24.57
2022-08-17T02:41:02.833Z,24.57
2022-08-17T02:43:28.456Z,24.57
2022-08-17T02:45:54.437Z,24.57
2022-08-17T02:48:30.977Z,24.57
2022-08-17T02:50:57.128Z,24.58
2022-08-17T02:53:22.780Z,24.56
2022-08-17T02:55:48.393Z,24.57
2022-08-17T02:58:14.072Z,24.56
2022-08-17T03:00:42.630Z,24.56
2022-08-17T03:03:10.208Z,24.57
2022-08-17T03:05:37.472Z,24.56
2022-08-17T03:08:04.377Z,24.56
2022-08-17T03:10:30.284Z,24.56
2022-08-17T03:12:55.922Z,24.56
2022-08-17T03:15:25.232Z,24.56
2022-08-17T03:17:51.894Z,24.56
2022-08-17T03:20:18.865Z,24.56
2022-08-17T03:22:53.401Z,24.55
2022-08-17T03:25:23.904Z,24.56
2022-08-17T03:27:50.277Z,24.56
2022-08-17T03:30:17.256Z,24.55
2022-08-17T03:32:45.449Z,24.56
2022-08-17T03:35:11.404Z,24.54
2022-08-17T03:37:38.584Z,24.54
2022-08-17T03:40:06.909Z,24.55
2022-08-17T03:42:33.325Z,24.55
2022-08-17T03:44:59.755Z,24.55
2022-08-17T03:47:45.409Z,24.55
2022-08-17T03:50:31.940Z,24.55
2022-08-17T03:53:17.489Z,24.55
2022-08-17T03:56:03.029Z,24.54
2022-08-17T03:58:28.705Z,24.53
2022-08-17T04:00:54.449Z,24.54
2022-08-17T04:03:20.090Z,24.55
2022-08-17T04:05:45.773Z,24.55
2022-08-17T04:08:11.482Z,24.55
2022-08-17T04:10:41.370Z,24.55
2022-08-17T04:13:11.511Z,24.53
2022-08-17T04:15:37.169Z,24.55
2022-08-17T04:18:02.898Z,24.54
2022-08-17T04:20:28.684Z,24.53
2022-08-17T04:22:56.596Z,24.53
2022-08-17T04:25:23.082Z,24.53
2022-08-17T04:27:48.715Z,24.53
2022-08-17T04:30:14.626Z,24.53
2022-08-17T04:33:06.259Z,24.53
2022-08-17T04:35:36.393Z,24.52
2022-08-17T04:38:03.188Z,24.54
2022-08-17T04:40:48.714Z,24.54
2022-08-17T04:43:18.750Z,24.53
2022-08-17T04:45:54.984Z,24.53
2022-08-17T04:48:21.824Z,24.53
2022-08-17T04:50:48.970Z,24.53
2022-08-17T04:53:16.001Z,24.53
2022-08-17T04:55:41.695Z,24.52
2022-08-17T04:58:07.348Z,24.52
2022-08-17T05:00:33.621Z,24.52
2022-08-17T05:02:59.377Z,24.53
2022-08-17T05:05:29.229Z,24.52
2022-08-17T05:08:00.400Z,24.53
2022-08-17T05:10:28.407Z,24.53
2022-08-17T05:12:58.448Z,24.53
2022-08-17T05:15:24.096Z,24.52
2022-08-17T05:17:49.730Z,24.51
2022-08-17T05:20:15.620Z,24.51
2022-08-17T05:22:50.399Z,24.53
2022-08-17T05:25:24.959Z,24.52
2022-08-17T05:27:52.578Z,24.52
2022-08-17T05:30:18.269Z,24.50
2022-08-17T05:33:05.124Z,24.51
2022-08-17T05:35:33.497Z,24.52
2022-08-17T05:38:00.059Z,24.50
2022-08-17T05:40:26.259Z,24.55
2022-08-17T05:43:15.788Z,24.56
2022-08-17T05:48:39.131Z,24.55
2022-08-17T05:51:20.146Z,24.48
2022-08-17T05:53:57.234Z,24.55
2022-08-17T05:56:44.706Z,24.58
2022-08-17T05:59:50.138Z,24.52
2022-08-17T06:02:43.027Z,24.58
2022-08-17T06:05:35.943Z,24.60
2022-08-17T06:08:32.020Z,24.60
2022-08-17T06:11:13.886Z,24.62
2022-08-17T06:14:07.297Z,24.62
2022-08-17T06:16:36.129Z,24.61
2022-08-17T06:19:06.033Z,24.62
2022-08-17T06:21:35.432Z,24.64
2022-08-17T06:24:06.746Z,24.62
2022-08-17T06:26:38.432Z,24.63
2022-08-17T06:29:44.517Z,24.63
2022-08-17T06:32:12.622Z,24.63
2022-08-17T06:34:39.016Z,24.63
2022-08-17T06:37:28.319Z,24.64
2022-08-17T06:40:33.745Z,24.64
2022-08-17T06:43:38.421Z,24.64
2022-08-17T06:46:10.524Z,24.66
2022-08-17T06:48:41.974Z,24.66
2022-08-17T06:54:32.888Z,24.72
2022-08-17T06:59:56.048Z,24.71
2022-08-17T07:02:52.040Z,24.73
2022-08-17T07:05:21.021Z,24.72
2022-08-17T07:08:07.223Z,24.69
2022-08-17T07:10:40.470Z,24.71
2022-08-17T07:13:29.511Z,24.73
2022-08-17T07:16:03.837Z,24.75
2022-08-17T07:18:32.264Z,24.74
2022-08-17T07:21:06.546Z,24.73
2022-08-17T07:23:43.847Z,24.73
2022-08-17T07:26:09.479Z,24.72
2022-08-17T07:28:35.751Z,24.73
2022-08-17T07:31:03.796Z,24.72
2022-08-17T07:33:29.876Z,24.75
2022-08-17T07:35:57.249Z,24.76
2022-08-17T07:38:27.753Z,24.79
2022-08-17T07:43:35.048Z,24.77
2022-08-17T07:46:42.705Z,24.77
2022-08-17T07:57:16.944Z,24.81
2022-08-17T08:00:05.268Z,24.78
2022-08-17T08:02:40.530Z,24.80
2022-08-17T08:05:48.769Z,24.81
2022-08-17T08:08:24.372Z,24.81
2022-08-17T08:10:59.147Z,24.83
2022-08-17T08:13:29.039Z,24.79
2022-08-17T08:16:10.663Z,24.77
2022-08-17T08:18:55.732Z,24.78
2022-08-17T08:24:31.233Z,24.78
2022-08-17T08:27:26.370Z,24.78
2022-08-17T08:32:53.261Z,24.80
2022-08-17T08:35:28.735Z,24.82
2022-08-17T08:38:22.602Z,24.76
2022-08-17T08:41:28.831Z,24.84
2022-08-17T08:44:05.619Z,24.82
2022-08-17T08:46:57.724Z,24.84
2022-08-17T08:50:06.092Z,24.84
2022-08-17T08:52:41.351Z,24.84
2022-08-17T08:55:15.990Z,24.84
2022-08-17T08:57:48.009Z,24.84
2022-08-17T09:00:16.482Z,24.85
2022-08-17T09:03:31.708Z,24.85
2022-08-17T09:06:37.558Z,24.84
2022-08-17T09:09:23.498Z,24.86
2022-08-17T09:12:02.139Z,24.87
2022-08-17T09:14:46.631Z,24.86
2022-08-17T09:17:28.105Z,24.88
2022-08-17T09:19:59.363Z,24.87
2022-08-17T09:22:33.894Z,24.88
2022-08-17T09:25:13.787Z,24.89
2022-08-17T09:27:56.470Z,24.89
2022-08-17T09:30:29.071Z,24.89
2022-08-17T09:32:58.384Z,24.90
2022-08-17T09:35:36.930Z,24.89
2022-08-17T09:38:41.893Z,24.90
2022-08-17T09:41:17.374Z,24.91
2022-08-17T09:43:50.102Z,24.91
2022-08-17T09:46:38.969Z,24.91
2022-08-17T09:49:14.185Z,24.92
2022-08-17T09:51:45.019Z,24.92
2022-08-17T09:54:38.762Z,24.94
2022-08-17T09:57:30.035Z,24.98
2022-08-17T10:00:15.450Z,25.08
2022-08-17T10:03:08.766Z,25.17
2022-08-17T10:06:00.189Z,25.08
2022-08-17T10:08:51.335Z,25.03
2022-08-17T10:14:36.619Z,24.99
2022-08-17T10:16:55.569Z,24.99
2022-08-17T10:22:34.586Z,24.99
2022-08-17T10:25:26.123Z,24.98
2022-08-17T10:28:01.771Z,24.99
2022-08-17T10:30:31.011Z,24.97
2022-08-17T10:32:59.855Z,24.97
2022-08-17T10:35:37.360Z,24.99
2022-08-17T10:38:32.650Z,24.99
2022-08-17T10:41:14.267Z,25.00
2022-08-17T10:44:37.146Z,24.84
2022-08-17T10:47:16.611Z,24.95
2022-08-17T10:49:48.637Z,24.98
2022-08-17T10:52:44.085Z,24.99
2022-08-17T10:55:16.698Z,24.98
2022-08-17T10:57:46.250Z,25.00
2022-08-17T11:03:20.216Z,24.86
2022-08-17T11:05:57.991Z,24.95
2022-08-17T11:08:56.667Z,24.99
2022-08-17T11:11:46.655Z,25.00
2022-08-17T11:14:24.838Z,25.01
2022-08-17T11:17:05.467Z,25.03
2022-08-17T11:19:55.297Z,25.02
2022-08-17T11:22:42.674Z,25.03
2022-08-17T11:25:14.265Z,25.03
2022-08-17T11:27:40.571Z,25.04
2022-08-17T11:30:11.096Z,25.05
2022-08-17T11:32:52.012Z,25.05
2022-08-17T11:38:24.879Z,25.03
2022-08-17T11:41:19.470Z,25.01
2022-08-17T11:43:55.540Z,25.04
2022-08-17T11:46:51.877Z,25.06
2022-08-17T11:49:45.437Z,25.07
2022-08-17T11:52:34.111Z,25.07
2022-08-17T11:55:17.722Z,25.07
2022-08-17T11:57:54.659Z,25.06
2022-08-17T12:00:49.114Z,25.07
2022-08-17T12:03:25.521Z,25.09
2022-08-17T12:06:00.912Z,25.08
2022-08-17T12:08:29.434Z,25.07
2022-08-17T12:11:15.835Z,25.07
2022-08-17T12:13:44.955Z,25.08
2022-08-17T12:16:20.047Z,25.09
2022-08-17T12:18:57.735Z,25.09
2022-08-17T12:21:49.710Z,25.09
2022-08-17T12:24:38.798Z,25.10
2022-08-17T12:27:06.303Z,25.10
2022-08-17T12:29:35.727Z,25.11
2022-08-17T12:32:06.112Z,25.11
2022-08-17T12:34:36.346Z,25.11
2022-08-17T12:37:06.985Z,25.09
2022-08-17T12:39:34.045Z,25.10
2022-08-17T12:42:02.585Z,25.09
2022-08-17T12:44:32.713Z,25.10
2022-08-17T12:47:08.758Z,25.08
2022-08-17T12:49:37.455Z,25.10
2022-08-17T12:52:15.281Z,25.10
2022-08-17T12:55:01.033Z,25.10
2022-08-17T12:57:32.594Z,25.09
2022-08-17T13:00:07.374Z,25.09
2022-08-17T13:02:50.905Z,25.10
2022-08-17T13:05:35.590Z,25.08
2022-08-17T13:08:05.002Z,25.10
2022-08-17T13:10:34.938Z,25.09
2022-08-17T13:13:05.141Z,25.10
2022-08-17T13:15:37.305Z,25.09
2022-08-17T13:24:00.719Z,24.75
2022-08-17T13:26:34.782Z,24.96
2022-08-17T13:29:04.557Z,25.02
2022-08-17T13:31:40.247Z,25.04
2022-08-17T13:37:28.046Z,25.02
2022-08-17T13:42:53.599Z,25.09
2022-08-17T13:45:40.225Z,25.09
2022-08-17T13:48:15.658Z,25.09
2022-08-17T13:56:38.902Z,25.08
2022-08-17T13:59:08.999Z,25.11
2022-08-17T14:01:41.496Z,25.11
2022-08-17T14:04:10.142Z,25.10
2022-08-17T14:09:37.456Z,25.12
2022-08-17T14:12:07.918Z,25.11
2022-08-17T14:14:33.550Z,25.11
2022-08-17T14:16:59.193Z,25.11
2022-08-17T14:19:25.310Z,25.12
2022-08-17T14:21:51.479Z,25.12
2022-08-17T14:24:34.367Z,25.13
2022-08-17T14:27:02.449Z,25.12
2022-08-17T14:29:28.660Z,25.13
2022-08-17T14:31:55.210Z,25.12
2022-08-17T14:34:22.256Z,25.13
2022-08-17T14:36:48.410Z,25.14
2022-08-17T14:39:15.108Z,25.13
2022-08-17T14:41:41.267Z,25.15
2022-08-17T14:44:11.474Z,25.13
2022-08-17T14:46:39.931Z,25.12
2022-08-17T14:49:06.618Z,25.11
2022-08-17T14:51:32.355Z,25.11
2022-08-17T14:53:58.030Z,25.11
2022-08-17T14:56:24.302Z,25.11
2022-08-17T14:58:51.002Z,25.12
2022-08-17T15:01:18.087Z,25.11
2022-08-17T15:03:43.761Z,25.11
2022-08-17T15:06:11.156Z,25.10
2022-08-17T15:08:38.199Z,25.11
2022-08-17T15:11:03.946Z,25.10
2022-08-17T15:13:30.034Z,25.09
2022-08-17T15:15:56.638Z,25.09
2022-08-17T15:18:22.355Z,25.09
2022-08-17T15:20:49.190Z,25.08
2022-08-17T15:23:18.034Z,25.09
2022-08-17T15:25:44.266Z,25.10
2022-08-17T15:28:10.058Z,25.08
2022-08-17T15:30:35.696Z,25.09
2022-08-17T15:33:01.782Z,25.07
2022-08-17T15:35:31.097Z,25.10
2022-08-17T15:38:00.087Z,25.09
2022-08-17T15:40:33.691Z,25.09
2022-08-17T15:43:07.321Z,25.10
2022-08-17T15:45:33.028Z,25.09
2022-08-17T15:47:59.270Z,25.10
2022-08-17T15:50:25.197Z,25.09
2022-08-17T15:52:59.342Z,25.09
2022-08-17T15:55:27.084Z,25.09
2022-08-17T15:57:53.294Z,25.09
2022-08-17T16:00:19.593Z,25.07
2022-08-17T16:03:45.011Z,25.09
2022-08-17T16:05:33.245Z,25.09
2022-08-17T16:07:58.926Z,25.07
2022-08-17T16:10:34.728Z,25.08
2022-08-17T16:13:01.587Z,25.08
2022-08-17T16:15:30.255Z,25.07
2022-08-17T16:17:56.271Z,25.07
2022-08-17T16:20:21.939Z,25.06
2022-08-17T16:22:48.669Z,25.07
2022-08-17T16:25:17.974Z,25.08
2022-08-17T16:27:44.893Z,25.07
2022-08-17T16:30:16.891Z,25.06
2022-08-17T16:32:43.299Z,25.06
2022-08-17T16:35:11.134Z,25.06
2022-08-17T16:37:38.736Z,25.06
2022-08-17T16:40:06.018Z,25.06
2022-08-17T16:42:33.242Z,25.05
2022-08-17T16:45:07.250Z,25.03
2022-08-17T16:47:32.920Z,25.03
2022-08-17T16:49:58.601Z,25.05
2022-08-17T16:52:32.853Z,25.05
2022-08-17T16:54:59.980Z,25.03
2022-08-17T16:57:25.795Z,25.03
2022-08-17T16:59:52.603Z,25.03
2022-08-17T17:02:35.507Z,25.02
2022-08-17T17:05:29.674Z,25.03
2022-08-17T17:08:04.138Z,25.03
2022-08-17T17:10:36.904Z,25.02
2022-08-17T17:13:04.864Z,25.01
2022-08-17T17:15:33.633Z,25.02
2022-08-17T17:18:06.079Z,24.99
2022-08-17T17:20:39.583Z,25.00
2022-08-17T17:23:11.352Z,25.01
2022-08-17T17:26:01.600Z,25.01
2022-08-17T17:28:39.692Z,25.00
2022-08-17T17:31:11.898Z,25.00
2022-08-17T17:33:42.357Z,25.00
2022-08-17T17:36:33.862Z,25.00
2022-08-17T17:39:07.621Z,24.99
2022-08-17T17:41:41.326Z,24.99
2022-08-17T17:44:11.289Z,24.99
2022-08-17T17:46:44.111Z,24.99
2022-08-17T17:49:10.418Z,24.99
2022-08-17T17:54:44.619Z,24.98
2022-08-17T17:57:23.755Z,24.98
2022-08-17T18:00:12.810Z,24.98
2022-08-17T18:02:51.442Z,24.97
2022-08-17T18:05:57.751Z,24.97
2022-08-17T18:08:36.972Z,24.98
2022-08-17T18:11:24.178Z,24.97
2022-08-17T18:13:58.680Z,24.97
2022-08-17T18:16:26.038Z,24.97
2022-08-17T18:18:52.679Z,24.95
2022-08-17T18:21:21.574Z,24.96
2022-08-17T18:23:55.351Z,24.96
2022-08-17T18:26:44.966Z,24.95
2022-08-17T18:29:22.388Z,24.95
2022-08-17T18:31:51.582Z,24.95
2022-08-17T18:34:43.727Z,24.95
2022-08-17T18:37:08.583Z,24.95
2022-08-17T18:39:36.220Z,24.95
2022-08-17T18:42:23.691Z,24.94
2022-08-17T18:44:54.315Z,24.94
2022-08-17T18:47:24.295Z,24.94
2022-08-17T18:49:56.638Z,24.94
2022-08-17T18:52:28.781Z,24.94
2022-08-17T18:55:20.137Z,24.95
2022-08-17T18:57:51.764Z,24.94
2022-08-17T19:00:32.058Z,24.95
2022-08-17T19:03:00.679Z,24.94
2022-08-17T19:05:31.290Z,24.94
2022-08-17T19:10:58.453Z,24.93
2022-08-17T19:13:28.716Z,24.92
2022-08-17T19:18:51.058Z,24.92
2022-08-17T19:21:22.103Z,24.92
2022-08-17T19:24:10.715Z,24.92
2022-08-17T19:26:53.473Z,24.91
2022-08-17T19:29:30.648Z,24.92
2022-08-17T19:31:57.635Z,24.91
2022-08-17T19:34:33.485Z,24.91
2022-08-17T19:37:06.638Z,24.92
2022-08-17T19:39:47.065Z,24.91
2022-08-17T19:42:40.387Z,24.90
2022-08-17T19:48:02.630Z,24.90
2022-08-17T19:50:52.869Z,24.91
2022-08-17T19:54:05.890Z,24.89
2022-08-17T19:56:49.439Z,24.89
2022-08-17T19:59:47.880Z,24.89
2022-08-17T20:02:37.030Z,24.88
2022-08-17T20:05:10.519Z,24.89
2022-08-17T20:07:54.679Z,24.88
2022-08-17T20:10:54.454Z,24.89
2022-08-17T20:13:33.595Z,24.88
2022-08-17T20:16:00.260Z,24.88
2022-08-17T20:18:35.864Z,24.87
2022-08-17T20:21:31.151Z,24.87
2022-08-17T20:24:25.557Z,24.87
2022-08-17T20:26:58.620Z,24.86
2022-08-17T20:29:37.251Z,24.86
2022-08-17T20:32:14.059Z,24.87
2022-08-17T20:34:39.714Z,24.86
2022-08-17T20:42:31.102Z,24.85
2022-08-17T20:45:02.117Z,24.85
2022-08-17T20:47:34.785Z,24.85
2022-08-17T20:50:06.727Z,24.86
2022-08-17T20:52:43.882Z,24.85
2022-08-17T20:55:52.595Z,24.85
2022-08-17T21:03:49.959Z,24.85
2022-08-17T21:06:19.469Z,24.84
2022-08-17T21:12:03.849Z,24.83
2022-08-17T21:17:35.665Z,24.84
2022-08-17T21:20:24.427Z,24.84
2022-08-17T21:23:07.588Z,24.84
2022-08-17T21:25:48.460Z,24.83
2022-08-17T21:28:30.130Z,24.83
2022-08-17T21:31:07.480Z,24.82
2022-08-17T21:33:36.234Z,24.83
2022-08-17T21:36:22.924Z,24.82
2022-08-17T21:41:29.298Z,24.82
2022-08-17T21:44:04.242Z,24.82
2022-08-17T21:46:36.052Z,24.81
2022-08-17T21:49:09.138Z,24.82
2022-08-17T21:51:43.979Z,24.81
2022-08-17T21:54:30.929Z,24.81
2022-08-17T21:56:57.903Z,24.80
2022-08-17T21:59:26.531Z,24.82
2022-08-17T22:01:55.141Z,24.81
2022-08-17T22:04:31.221Z,24.81
2022-08-17T22:06:59.456Z,24.81
2022-08-17T22:09:28.987Z,24.80
2022-08-17T22:11:58.260Z,24.80
2022-08-17T22:14:51.714Z,24.80
2022-08-17T22:17:29.359Z,24.80
2022-08-17T22:19:59.757Z,24.80
2022-08-17T22:23:08.542Z,24.79
2022-08-17T22:25:39.813Z,24.78
2022-08-17T22:28:09.580Z,24.79
2022-08-17T22:33:37.188Z,24.78
2022-08-17T22:36:25.149Z,24.78
2022-08-17T22:38:55.436Z,24.78
2022-08-17T22:41:30.996Z,24.78
2022-08-17T22:44:01.523Z,24.77
2022-08-17T22:46:28.287Z,24.78
2022-08-17T22:48:57.024Z,24.78
2022-08-17T22:51:27.136Z,24.78
2022-08-17T22:54:16.709Z,24.77
2022-08-17T22:57:08.245Z,24.77
2022-08-17T22:59:41.476Z,24.77
2022-08-17T23:02:28.080Z,24.77
2022-08-17T23:07:51.932Z,24.77
2022-08-17T23:10:17.756Z,24.78
2022-08-17T23:12:43.393Z,24.76
2022-08-17T23:15:13.555Z,24.76
2022-08-17T23:17:41.067Z,24.76
2022-08-17T23:20:11.200Z,24.76
2022-08-17T23:22:37.341Z,24.76
2022-08-17T23:25:03.917Z,24.75
2022-08-17T23:27:29.580Z,24.76
2022-08-17T23:29:55.267Z,24.75
2022-08-17T23:32:21.433Z,24.76
2022-08-17T23:34:48.584Z,24.75
2022-08-17T23:37:15.908Z,24.75
2022-08-17T23:39:44.087Z,24.75
2022-08-17T23:42:15.876Z,24.74
2022-08-17T23:44:42.838Z,24.75
2022-08-17T23:47:09.335Z,24.74
2022-08-17T23:49:35.502Z,24.75
2022-08-17T23:52:02.889Z,24.74
2022-08-17T23:54:33.900Z,24.75
2022-08-17T23:57:00.823Z,24.75
2022-08-17T23:59:26.673Z,24.75
